• Join FlightAware (Why Join?)
  • Login
  • US Flag 
10:48AM EDT


 

Airport Tracker/Info


-or-


 

Live Flight TrackerFlight Track Log ✈ N9763N ✈ 16-Jun-2013 ✈ KFCI - KLZU

Flight Track Log - Related Links

Times and Time Zones

All times are in EDT time to prevent confusion due to time zone crossing. See the N9763N flight status page for this flight to view local times or setup timezone preferences in your user account.

Time Position Orientation Groundspeed Altitude Reporting Facility
EDT Latitude Longitude Course Direction KTS MPH feet Rate Location/Type
11:58AM 37.2144 -78.0094 239° Southwest 102 117 8,200  Level Washington Center
11:59AM 37.1953 -78.0375 229° Southwest 102 117 8,400 120 Climbing Washington Center
12:00PM 37.1861 -78.0711 251° West 107 123 8,500  Climbing Washington Center
12:01PM 37.1747 -78.1125 251° West 114 131 8,500  Level Washington Center
12:02PM 37.1636 -78.1511 250° West 121 139 8,600  Climbing Washington Center
12:03PM 37.1522 -78.1950 252° West 131 151 8,500 -60 Descending Washington Center
12:04PM 36.8951 -78.5653 239° Southwest  Level Estimated
12:04PM 37.1389 -78.2311 245° Southwest 131 151 8,500  Level Washington Center
12:05PM 37.1214 -78.2669 239° Southwest 131 151 8,600  Climbing Washington Center
12:06PM 37.1039 -78.3056 240° Southwest 131 151 8,600 -60 Level Washington Center
12:07PM 37.0861 -78.3464 241° Southwest 131 151 8,500  Descending Washington Center
12:08PM 37.0706 -78.3875 245° Southwest 131 151 8,600  Climbing Washington Center
12:09PM 37.0572 -78.4286 248° West 137 158 8,600  Level Washington Center
12:10PM 37.0394 -78.4697 242° Southwest 137 158 8,600  Level Washington Center
12:12PM 37.0078 -78.5086 224° Southwest  Level FlightAware Approximate
12:19PM 36.8336 -78.7953 238° Southwest  Level FlightAware Approximate
12:20PM 36.8116 -78.8383 237° Southwest  Level FlightAware Approximate
12:21PM 36.7895 -78.8813 237° Southwest  Level FlightAware Approximate
12:22PM 36.7674 -78.9243 237° Southwest  Level FlightAware Approximate
12:23PM 36.7454 -78.9672 237° Southwest  Level FlightAware Approximate
12:24PM 36.7233 -79.0102 237° Southwest  Level FlightAware Approximate
12:25PM 36.7011 -79.0531 237° Southwest  Level FlightAware Approximate
12:26PM 36.6790 -79.0959 237° Southwest  Level FlightAware Approximate
12:27PM 36.6569 -79.1388 237° Southwest  Level FlightAware Approximate
12:28PM 36.6347 -79.1816 237° Southwest  Level FlightAware Approximate
12:29PM 36.6125 -79.2244 237° Southwest  Level FlightAware Approximate
12:30PM 36.5903 -79.2672 237° Southwest  Level FlightAware Approximate
12:31PM 36.5681 -79.3099 237° Southwest  Level FlightAware Approximate
12:32PM 36.5459 -79.3526 237° Southwest  Level FlightAware Approximate
12:33PM 36.5237 -79.3953 237° Southwest  Level FlightAware Approximate
12:34PM 36.5014 -79.4380 237° Southwest  Level FlightAware Approximate
12:35PM 36.4791 -79.4806 237° Southwest  Level FlightAware Approximate
12:36PM 36.4569 -79.5232 237° Southwest  Level FlightAware Approximate
12:37PM 36.4346 -79.5658 237° Southwest  Level FlightAware Approximate
12:38PM 36.4122 -79.6084 236° Southwest  Level FlightAware Approximate
12:39PM 36.3896 -79.6507 236° Southwest  Level FlightAware Approximate
12:40PM 36.3669 -79.6929 236° Southwest  Level FlightAware Approximate
12:41PM 36.3443 -79.7352 236° Southwest  Level FlightAware Approximate
12:42PM 36.3216 -79.7774 236° Southwest  Level FlightAware Approximate
12:43PM 36.2989 -79.8196 236° Southwest  Level FlightAware Approximate
12:44PM 36.2762 -79.8618 236° Southwest  Level FlightAware Approximate
12:45PM 36.2535 -79.9039 236° Southwest  Level FlightAware Approximate
12:46PM 36.2307 -79.9461 236° Southwest  Level FlightAware Approximate
12:47PM 36.2080 -79.9882 236° Southwest  Level FlightAware Approximate
12:48PM 36.1852 -80.0302 236° Southwest  Level FlightAware Approximate
12:49PM 36.1624 -80.0723 236° Southwest  Level FlightAware Approximate
12:50PM 36.1396 -80.1143 236° Southwest  Level FlightAware Approximate
12:51PM 36.1168 -80.1563 236° Southwest  Level FlightAware Approximate
12:52PM 36.0940 -80.1983 236° Southwest  Level FlightAware Approximate
12:53PM 36.0712 -80.2402 236° Southwest  Level FlightAware Approximate
12:54PM 36.0483 -80.2822 236° Southwest  Level FlightAware Approximate
12:55PM 36.0254 -80.3241 236° Southwest  Level FlightAware Approximate
12:56PM 36.0025 -80.3660 236° Southwest  Level FlightAware Approximate
12:57PM 35.9796 -80.4078 236° Southwest  Level FlightAware Approximate
12:58PM 35.9567 -80.4497 236° Southwest  Level FlightAware Approximate
12:59PM 35.9338 -80.4915 236° Southwest  Level FlightAware Approximate
01:00PM 35.9109 -80.5332 236° Southwest  Level FlightAware Approximate
01:01PM 35.8879 -80.5750 236° Southwest  Level FlightAware Approximate
01:02PM 35.8654 -80.6171 237° Southwest  Level FlightAware Approximate
01:03PM 35.8429 -80.6593 237° Southwest  Level FlightAware Approximate
01:04PM 35.8205 -80.7014 237° Southwest  Level FlightAware Approximate
01:05PM 35.7980 -80.7435 237° Southwest  Level FlightAware Approximate
01:06PM 35.7755 -80.7856 237° Southwest  Level FlightAware Approximate
01:07PM 35.7530 -80.8277 237° Southwest  Level FlightAware Approximate
01:08PM 35.7301 -80.8694 236° Southwest  Level FlightAware Approximate
01:09PM 35.7071 -80.9110 236° Southwest  Level FlightAware Approximate
01:10PM 35.6842 -80.9527 236° Southwest  Level FlightAware Approximate
01:11PM 35.6612 -80.9943 236° Southwest  Level FlightAware Approximate
01:12PM 35.6381 -81.0358 236° Southwest  Level FlightAware Approximate
01:13PM 35.6151 -81.0774 236° Southwest  Level FlightAware Approximate
01:14PM 35.5921 -81.1189 236° Southwest  Level FlightAware Approximate
01:15PM 35.5690 -81.1604 236° Southwest  Level FlightAware Approximate
01:16PM 35.5459 -81.2019 236° Southwest  Level FlightAware Approximate
01:17PM 35.5228 -81.2434 236° Southwest  Level FlightAware Approximate
01:18PM 35.4997 -81.2848 236° Southwest  Level FlightAware Approximate
01:19PM 35.4766 -81.3262 236° Southwest  Level FlightAware Approximate
01:20PM 35.4535 -81.3676 236° Southwest  Level FlightAware Approximate
01:21PM 35.4303 -81.4089 236° Southwest  Level FlightAware Approximate
01:22PM 35.4072 -81.4503 236° Southwest  Level FlightAware Approximate
01:23PM 35.3840 -81.4916 235° Southwest  Level FlightAware Approximate
01:24PM 35.3608 -81.5329 235° Southwest  Level FlightAware Approximate
01:25PM 35.3376 -81.5742 235° Southwest  Level FlightAware Approximate
01:26PM 35.3144 -81.6154 235° Southwest  Level FlightAware Approximate
01:27PM 35.2911 -81.6566 235° Southwest  Level FlightAware Approximate
01:28PM 35.2679 -81.6978 235° Southwest  Level FlightAware Approximate
01:29PM 35.2465 -81.7404 239° Southwest  Level FlightAware Approximate
01:30PM 35.2245 -81.7827 236° Southwest  Level FlightAware Approximate
01:31PM 35.2016 -81.8241 236° Southwest  Level FlightAware Approximate
01:32PM 35.1787 -81.8655 236° Southwest  Level FlightAware Approximate
01:33PM 35.1558 -81.9069 236° Southwest  Level FlightAware Approximate
01:34PM 35.1328 -81.9483 236° Southwest  Level FlightAware Approximate
01:35PM 35.1099 -81.9896 236° Southwest  Level FlightAware Approximate
01:36PM 35.0869 -82.0310 236° Southwest  Level FlightAware Approximate
01:37PM 35.0639 -82.0723 236° Southwest  Level FlightAware Approximate
01:38PM 35.0409 -82.1136 236° Southwest  Level FlightAware Approximate
01:39PM 35.0179 -82.1548 236° Southwest  Level FlightAware Approximate
01:40PM 34.9948 -82.1961 236° Southwest  Level FlightAware Approximate
01:41PM 34.9718 -82.2373 236° Southwest  Level FlightAware Approximate
01:42PM 34.9487 -82.2785 236° Southwest  Level FlightAware Approximate
01:43PM 34.9257 -82.3196 236° Southwest  Level FlightAware Approximate
01:44PM 34.9026 -82.3608 236° Southwest  Level FlightAware Approximate
01:45PM 34.8795 -82.4019 236° Southwest  Level FlightAware Approximate
01:46PM 34.8564 -82.4430 236° Southwest  Level FlightAware Approximate
01:47PM 34.8332 -82.4841 236° Southwest  Level FlightAware Approximate
01:48PM 34.8101 -82.5251 236° Southwest  Level FlightAware Approximate
01:49PM 34.7869 -82.5662 236° Southwest  Level FlightAware Approximate
01:50PM 34.7638 -82.6072 235° Southwest  Level FlightAware Approximate
01:51PM 34.7406 -82.6482 235° Southwest  Level FlightAware Approximate
01:52PM 34.7174 -82.6891 235° Southwest  Level FlightAware Approximate
01:53PM 34.6942 -82.7301 235° Southwest  Level FlightAware Approximate
01:54PM 34.6710 -82.7710 235° Southwest  Level FlightAware Approximate
01:55PM 34.6477 -82.8119 235° Southwest  Level FlightAware Approximate
01:56PM 34.6245 -82.8527 235° Southwest  Level FlightAware Approximate
01:57PM 34.6012 -82.8936 235° Southwest  Level FlightAware Approximate
01:58PM 34.5779 -82.9344 235° Southwest  Level FlightAware Approximate
01:59PM 34.5546 -82.9752 235° Southwest  Level FlightAware Approximate
02:00PM 34.5312 -83.0159 235° Southwest  Level FlightAware Approximate
02:01PM 34.5078 -83.0565 235° Southwest  Level FlightAware Approximate
02:02PM 34.4843 -83.0971 235° Southwest  Level FlightAware Approximate
02:03PM 34.4608 -83.1377 235° Southwest  Level FlightAware Approximate
02:04PM 34.4373 -83.1783 235° Southwest  Level FlightAware Approximate
02:05PM 34.4138 -83.2188 235° Southwest  Level FlightAware Approximate
02:06PM 34.3903 -83.2594 235° Southwest  Level FlightAware Approximate
02:07PM 34.3667 -83.2999 235° Southwest  Level FlightAware Approximate
02:08PM 34.3432 -83.3403 235° Southwest  Level FlightAware Approximate
02:09PM 34.3196 -83.3808 235° Southwest  Level FlightAware Approximate
02:10PM 34.2960 -83.4212 235° Southwest  Level FlightAware Approximate
02:11PM 34.2724 -83.4616 235° Southwest  Level FlightAware Approximate
02:12PM 34.2487 -83.5019 231° Southwest  Level FlightAware Approximate
02:13PM 34.2231 -83.5404 231° Southwest  Level FlightAware Approximate
02:14PM 34.1975 -83.5789 231° Southwest  Level FlightAware Approximate
02:15PM 34.1718 -83.6174 231° Southwest  Level FlightAware Approximate
02:16PM 34.1461 -83.6559 231° Southwest  Level FlightAware Approximate
02:17PM 34.1205 -83.6943 231° Southwest  Level FlightAware Approximate
02:18PM 34.0987 -83.7360 239° Southwest  Level FlightAware Approximate
02:19PM 34.0775 -83.7783 239° Southwest  Level FlightAware Approximate
02:20PM 34.0554 -83.8197 235° Southwest  Level FlightAware Approximate
02:21PM 34.0322 -83.8604 235° Southwest  Level FlightAware Approximate
02:22PM 34.0090 -83.9010 235° Southwest  Level FlightAware Approximate
02:23PM 33.9807 -83.9360 220° Southwest  Level FlightAware Approximate
02:24PM 33.9667 -83.9500 220° Southwest  Level FlightAware Approximate
02:25PM 33.9781 -83.9624 220° Southwest  Level Estimated
02:26PM 33.9781 -83.9624 220° Southwest  Level Estimated
02:27PM 33.9781 -83.9624 220° Southwest  Level Estimated
02:28PM 33.9781 -83.9624 220° Southwest  Level Estimated
02:29PM 33.9781 -83.9624 220° Southwest  Level Estimated
02:30PM 33.9781 -83.9624 220° Southwest  Level Estimated